This is the latest recevied weather packets stored in our database for station/object EA8CAY-10. If no packets are shown the sender has not sent any weather packets the latest 1 day(s).
| Time | Temp. | Humidity | Pressure | Rain* | Wind** | Luminosity | Snow |
|---|---|---|---|---|---|---|---|
| 1788600551 | 26.67° C | 61% | 1015.5 hPa | - | - | - | - |
| 1788599651 | 26.67° C | 62% | 1015.4 hPa | - | - | - | - |
| 1788598751 | 26.67° C | 62% | 1015.5 hPa | - | - | - | - |
| 1788597851 | 26.67° C | 63% | 1015.5 hPa | - | - | - | - |
| 1788596950 | 26.67° C | 63% | 1015.5 hPa | - | - | - | - |
| 1788596050 | 26.11° C | 64% | 1015.6 hPa | - | - | - | - |
| 1788595150 | 26.11° C | 64% | 1015.6 hPa | - | - | - | - |
| 1788594250 | 25.56° C | 67% | 1015.3 hPa | - | - | - | - |
| 1788593350 | 25° C | 67% | 1015.2 hPa | - | - | - | - |
| 1788592450 | 25° C | 66% | 1014.9 hPa | - | - | - | - |
| 1788591550 | 25.56° C | 64% | 1014.7 hPa | - | - | - | - |
| 1788590650 | 26.11° C | 62% | 1014.7 hPa | - | - | - | - |
| 1788589750 | 25.56° C | 63% | 1013.5 hPa | - | - | - | - |
| 1788588850 | 25.56° C | 64% | 1012.9 hPa | - | - | - | - |
| 1788587949 | 26.11° C | 64% | 1012.7 hPa | - | - | - | - |
| 1788587049 | 25.56° C | 65% | 1012.4 hPa | - | - | - | - |
| 1788586148 | 25.56° C | 64% | 1012.8 hPa | - | - | - | - |
| 1788585248 | 26.11° C | 63% | 1013.8 hPa | - | - | - | - |
| 1788584347 | 26.11° C | 64% | 1014.4 hPa | - | - | - | - |
| 1788583447 | 26.11° C | 64% | 1013.8 hPa | - | - | - | - |
| 1788582547 | 25° C | 63% | 1012 hPa | - | - | - | - |
| 1788581651 | 25.56° C | 65% | 1013.8 hPa | - | - | - | - |
| 1788580751 | 26.11° C | 63% | 1013.9 hPa | - | - | - | - |
| 1788579851 | 26.11° C | 63% | 1013.8 hPa | - | - | - | - |
| 1788578951 | 26.11° C | 63% | 1013.9 hPa | - | - | - | - |
* Rain since midnight (hover to see other rain measurements)
** Current wind speed in m/s (hover to see current wind gust speed)